createdAt,value
2022-10-07T00:01:56.826Z,98.80
2022-10-07T00:04:23.490Z,96.70
2022-10-07T00:06:50.290Z,99.10
2022-10-07T00:09:16.925Z,92.10
2022-10-07T00:11:43.604Z,99.90
2022-10-07T00:14:10.417Z,98.10
2022-10-07T00:16:38.406Z,89.90
2022-10-07T00:19:06.285Z,81.90
2022-10-07T00:21:33.656Z,82.30
2022-10-07T00:24:00.389Z,87.50
2022-10-07T00:26:28.791Z,69.50
2022-10-07T00:28:55.907Z,67.10
2022-10-07T00:31:24.159Z,79.20
2022-10-07T00:33:51.464Z,74.10
2022-10-07T00:36:19.371Z,57.20
2022-10-07T00:38:50.426Z,90.70
2022-10-07T00:41:18.773Z,81.70
2022-10-07T00:43:45.335Z,58.60
2022-10-07T00:46:33.072Z,78.60
2022-10-07T00:49:01.617Z,75.00
2022-10-07T00:51:28.773Z,65.30
2022-10-07T00:53:56.165Z,92.20
2022-10-07T00:56:25.585Z,89.40
2022-10-07T00:58:52.339Z,89.70
2022-10-07T01:01:20.551Z,88.90
2022-10-07T01:03:48.052Z,91.10
2022-10-07T01:06:14.798Z,94.10
2022-10-07T01:08:42.194Z,90.30
2022-10-07T01:11:27.703Z,91.00
2022-10-07T01:13:54.557Z,87.80
2022-10-07T01:16:30.827Z,87.70
2022-10-07T01:19:06.806Z,88.40
2022-10-07T01:21:43.450Z,92.10
2022-10-07T01:24:09.959Z,96.60
2022-10-07T01:26:44.756Z,87.00
2022-10-07T01:29:13.590Z,87.40
2022-10-07T01:31:47.472Z,91.20
2022-10-07T01:34:14.709Z,86.70
2022-10-07T01:36:41.831Z,66.30
2022-10-07T01:39:13.703Z,90.90
2022-10-07T01:41:40.959Z,85.80
2022-10-07T01:44:09.111Z,78.50
2022-10-07T01:46:37.858Z,62.00
2022-10-07T01:49:05.342Z,91.10
2022-10-07T01:51:34.761Z,84.90
2022-10-07T01:54:04.018Z,90.50
2022-10-07T01:56:45.836Z,92.90
2022-10-07T01:59:15.469Z,99.90
2022-10-07T02:01:50.760Z,90.50
2022-10-07T02:04:17.325Z,84.00
2022-10-07T02:06:57.023Z,90.20
2022-10-07T02:09:29.553Z,75.40
2022-10-07T02:12:04.802Z,61.00
2022-10-07T02:14:38.252Z,78.80
2022-10-07T02:17:07.816Z,58.90
2022-10-07T02:19:36.572Z,56.80
2022-10-07T02:22:03.667Z,63.80
2022-10-07T02:24:32.446Z,58.30
2022-10-07T02:27:01.224Z,78.70
2022-10-07T02:29:30.796Z,71.80
2022-10-07T02:31:59.256Z,67.50
2022-10-07T02:34:26.354Z,66.70
2022-10-07T02:36:54.745Z,57.80
2022-10-07T02:39:21.529Z,61.50
2022-10-07T02:42:06.708Z,56.70
2022-10-07T02:44:42.149Z,61.80
2022-10-07T02:47:16.536Z,55.70
2022-10-07T02:49:45.277Z,52.60
2022-10-07T02:52:13.905Z,44.30
2022-10-07T02:54:46.131Z,53.60
2022-10-07T02:57:14.477Z,72.70
2022-10-07T02:59:41.505Z,48.90
2022-10-07T03:02:11.217Z,52.20
2022-10-07T03:04:37.890Z,51.60
2022-10-07T03:07:04.636Z,62.90
2022-10-07T03:09:31.399Z,82.60
2022-10-07T03:11:57.963Z,75.80
2022-10-07T03:14:27.992Z,76.60
2022-10-07T03:16:54.505Z,74.70
2022-10-07T03:19:21.039Z,89.00
2022-10-07T03:21:47.683Z,75.40
2022-10-07T03:24:14.261Z,73.90
2022-10-07T03:26:40.887Z,73.10
2022-10-07T03:29:08.495Z,58.30
2022-10-07T03:31:35.252Z,76.80
2022-10-07T03:34:02.074Z,77.10
2022-10-07T03:36:28.633Z,72.30
2022-10-07T03:38:55.594Z,41.70
2022-10-07T03:41:22.439Z,61.70
2022-10-07T03:43:48.954Z,58.00
2022-10-07T03:46:16.703Z,51.80
2022-10-07T03:48:43.279Z,76.80
2022-10-07T03:51:09.813Z,73.60
2022-10-07T03:53:37.641Z,76.70
2022-10-07T03:56:04.351Z,76.10
2022-10-07T03:58:31.061Z,57.70
2022-10-07T04:01:08.315Z,77.90
2022-10-07T04:03:34.879Z,58.80
2022-10-07T04:06:03.185Z,82.70
2022-10-07T04:08:32.422Z,60.10
2022-10-07T04:10:59.699Z,58.00
2022-10-07T04:13:26.310Z,58.70
2022-10-07T04:15:53.190Z,66.00
2022-10-07T04:18:19.739Z,64.50
2022-10-07T04:20:46.321Z,77.00
2022-10-07T04:23:12.967Z,73.80
2022-10-07T04:25:43.801Z,84.10
2022-10-07T04:28:16.024Z,82.50
2022-10-07T04:30:43.741Z,76.90
2022-10-07T04:33:19.543Z,78.10
2022-10-07T04:35:46.200Z,75.20
2022-10-07T04:38:13.708Z,57.90
2022-10-07T04:40:41.506Z,76.60
2022-10-07T04:43:23.185Z,77.30
2022-10-07T04:45:54.350Z,79.80
2022-10-07T04:48:22.360Z,73.90
2022-10-07T04:50:49.380Z,75.10
2022-10-07T04:53:16.582Z,75.90
2022-10-07T04:55:47.591Z,71.20
2022-10-07T04:58:15.311Z,52.50
2022-10-07T05:00:43.445Z,71.10
2022-10-07T05:03:10.533Z,57.90
2022-10-07T05:05:40.285Z,52.80
2022-10-07T05:08:07.450Z,74.90
2022-10-07T05:10:35.491Z,74.00
2022-10-07T05:13:01.985Z,94.60
2022-10-07T05:15:28.541Z,76.60
2022-10-07T05:17:55.902Z,93.30
2022-10-07T05:20:22.608Z,92.90
2022-10-07T05:22:49.149Z,94.00
2022-10-07T05:25:15.855Z,76.00
2022-10-07T05:27:42.531Z,72.60
2022-10-07T05:30:09.608Z,74.30
2022-10-07T05:32:36.230Z,85.30
2022-10-07T05:35:03.348Z,76.70
2022-10-07T05:37:32.326Z,56.50
2022-10-07T05:39:58.858Z,64.60
2022-10-07T05:42:25.402Z,47.50
2022-10-07T05:44:51.982Z,56.90
2022-10-07T05:47:18.912Z,57.70
2022-10-07T05:49:45.577Z,64.90
2022-10-07T05:52:12.142Z,54.80
2022-10-07T05:54:38.727Z,59.90
2022-10-07T05:57:05.269Z,63.90
2022-10-07T05:59:31.783Z,54.30
2022-10-07T06:02:00.452Z,44.10
2022-10-07T06:04:31.227Z,41.30
2022-10-07T06:06:57.785Z,45.10
2022-10-07T06:09:43.214Z,45.30
2022-10-07T06:12:28.351Z,44.30
2022-10-07T06:14:54.973Z,40.10
2022-10-07T06:17:22.590Z,39.40
2022-10-07T06:19:49.141Z,44.10
2022-10-07T06:22:15.647Z,43.70
2022-10-07T06:24:42.258Z,42.00
2022-10-07T06:27:08.768Z,55.50
2022-10-07T06:29:35.364Z,70.00
2022-10-07T06:32:02.023Z,62.80
2022-10-07T06:34:29.380Z,72.50
2022-10-07T06:36:55.949Z,51.00
2022-10-07T06:39:22.485Z,58.00
2022-10-07T06:41:49.070Z,63.90
2022-10-07T06:44:15.665Z,91.20
2022-10-07T06:46:42.195Z,76.80
2022-10-07T06:49:08.729Z,83.30
2022-10-07T06:51:35.234Z,77.90
2022-10-07T06:54:02.196Z,72.10
2022-10-07T06:56:28.993Z,83.00
2022-10-07T06:58:55.553Z,88.50
2022-10-07T07:01:22.311Z,94.80
2022-10-07T07:03:48.933Z,83.60
2022-10-07T07:06:15.472Z,90.70
2022-10-07T07:08:42.179Z,91.70
2022-10-07T07:11:28.464Z,97.00
2022-10-07T07:13:55.804Z,95.90
2022-10-07T07:16:24.102Z,99.90
2022-10-07T07:18:57.049Z,97.80
2022-10-07T07:21:24.153Z,99.90
2022-10-07T07:23:53.678Z,99.90
2022-10-07T07:26:20.555Z,99.90
2022-10-07T07:28:53.928Z,99.90
2022-10-07T07:31:20.859Z,99.90
2022-10-07T07:33:52.376Z,99.90
2022-10-07T07:36:21.186Z,99.90
2022-10-07T07:38:55.201Z,99.90
2022-10-07T07:41:22.958Z,99.90
2022-10-07T07:43:51.066Z,99.90
2022-10-07T07:46:18.659Z,99.90
2022-10-07T07:48:48.668Z,99.90
2022-10-07T07:51:17.173Z,99.90
2022-10-07T07:53:44.010Z,99.90
2022-10-07T07:56:11.731Z,99.90
2022-10-07T07:58:38.592Z,99.90
2022-10-07T08:01:10.126Z,99.90
2022-10-07T08:03:37.437Z,99.90
2022-10-07T08:06:07.811Z,99.90
2022-10-07T08:08:34.528Z,99.90
2022-10-07T08:11:10.691Z,99.90
2022-10-07T08:13:39.528Z,99.90
2022-10-07T08:16:06.273Z,99.90
2022-10-07T08:18:32.814Z,97.70
2022-10-07T08:21:05.088Z,94.90
2022-10-07T08:23:31.776Z,99.90
2022-10-07T08:25:58.718Z,99.90
2022-10-07T08:28:26.092Z,95.50
2022-10-07T08:30:52.838Z,99.90
2022-10-07T08:33:19.794Z,99.90
2022-10-07T08:35:49.933Z,99.90
2022-10-07T08:38:16.562Z,99.90
2022-10-07T08:40:50.209Z,99.90
2022-10-07T08:43:18.152Z,94.40
2022-10-07T08:45:45.379Z,99.90
2022-10-07T08:48:20.186Z,99.90
2022-10-07T08:50:51.712Z,99.90
2022-10-07T08:53:23.089Z,99.90
2022-10-07T08:55:54.981Z,99.90
2022-10-07T08:58:33.736Z,99.90
2022-10-07T09:01:19.013Z,99.90
2022-10-07T09:04:10.520Z,99.90
2022-10-07T09:06:55.274Z,99.90
2022-10-07T09:09:32.418Z,99.90
2022-10-07T09:12:00.637Z,99.90
2022-10-07T09:14:27.192Z,99.90
2022-10-07T09:16:56.029Z,99.90
2022-10-07T09:19:28.671Z,99.90
2022-10-07T09:22:00.145Z,99.90
2022-10-07T09:24:28.225Z,99.90
2022-10-07T09:26:56.576Z,99.90
2022-10-07T09:29:26.393Z,99.90
2022-10-07T09:31:53.560Z,99.90
2022-10-07T09:34:24.145Z,99.90
2022-10-07T09:37:09.681Z,98.40
2022-10-07T09:39:36.675Z,99.90
2022-10-07T09:42:06.626Z,99.90
2022-10-07T09:44:33.398Z,99.90
2022-10-07T09:47:11.876Z,99.90
2022-10-07T09:49:41.025Z,99.90
2022-10-07T09:52:15.920Z,99.90
2022-10-07T09:54:43.624Z,99.90
2022-10-07T09:57:23.911Z,99.90
2022-10-07T09:59:50.465Z,98.90
2022-10-07T10:02:25.127Z,99.90
2022-10-07T10:04:55.775Z,93.20
2022-10-07T10:07:25.371Z,98.30
2022-10-07T10:09:53.144Z,99.90
2022-10-07T10:12:20.777Z,99.90
2022-10-07T10:14:48.783Z,99.90
2022-10-07T10:17:27.593Z,97.20
2022-10-07T10:19:54.594Z,99.90
2022-10-07T10:22:26.337Z,99.90
2022-10-07T10:25:12.217Z,96.90
2022-10-07T10:27:50.732Z,99.90
2022-10-07T10:30:20.808Z,99.90
2022-10-07T10:33:07.144Z,99.90
2022-10-07T10:35:52.640Z,99.90
2022-10-07T10:38:34.207Z,99.90
2022-10-07T10:41:19.909Z,99.90
2022-10-07T10:43:54.835Z,99.90
2022-10-07T10:46:25.067Z,99.90
2022-10-07T10:49:16.236Z,99.90
2022-10-07T10:51:48.125Z,99.90
2022-10-07T10:54:17.878Z,99.90
2022-10-07T10:56:50.378Z,99.90
2022-10-07T10:59:23.825Z,99.90
2022-10-07T11:01:55.015Z,99.90
2022-10-07T11:04:21.610Z,99.90
2022-10-07T11:06:50.407Z,99.90
2022-10-07T11:09:30.833Z,99.90
2022-10-07T11:11:59.244Z,99.90
2022-10-07T11:14:26.431Z,99.90
2022-10-07T11:16:56.562Z,96.20
2022-10-07T11:19:30.730Z,99.90
2022-10-07T11:21:59.814Z,99.90
2022-10-07T11:24:29.305Z,98.80
2022-10-07T11:27:00.523Z,99.90
2022-10-07T11:29:32.840Z,99.90
2022-10-07T11:32:08.017Z,99.90
2022-10-07T11:34:53.734Z,99.90
2022-10-07T11:37:21.167Z,99.90
2022-10-07T11:39:48.317Z,99.90
2022-10-07T11:42:21.675Z,99.90
2022-10-07T11:45:02.557Z,99.90
2022-10-07T11:47:37.822Z,99.90
2022-10-07T11:50:17.092Z,99.90
2022-10-07T11:52:45.520Z,99.90
2022-10-07T11:55:20.646Z,99.90
2022-10-07T11:57:50.598Z,99.90
2022-10-07T12:00:23.345Z,99.90
2022-10-07T12:02:51.151Z,99.90
2022-10-07T12:05:36.135Z,99.90
2022-10-07T12:08:24.617Z,99.90
2022-10-07T12:11:14.920Z,99.90
2022-10-07T12:13:43.752Z,99.90
2022-10-07T12:16:30.070Z,99.90
2022-10-07T12:19:03.951Z,99.90
2022-10-07T12:21:32.422Z,99.90
2022-10-07T12:24:25.304Z,99.90
2022-10-07T12:26:52.614Z,99.90
2022-10-07T12:29:20.887Z,99.90
2022-10-07T12:31:48.566Z,99.90
2022-10-07T12:34:22.896Z,99.90
2022-10-07T12:36:49.603Z,99.90
2022-10-07T12:39:18.921Z,99.90
2022-10-07T12:41:46.557Z,99.90
2022-10-07T12:44:19.619Z,99.90
2022-10-07T12:46:51.160Z,99.90
2022-10-07T12:49:26.811Z,99.90
2022-10-07T12:51:53.982Z,99.90
2022-10-07T12:54:25.796Z,99.90
2022-10-07T12:56:53.012Z,99.90
2022-10-07T12:59:44.537Z,99.90
2022-10-07T13:02:26.231Z,99.90
2022-10-07T13:05:11.435Z,99.90
2022-10-07T13:07:56.383Z,99.90
2022-10-07T13:10:26.029Z,99.90
2022-10-07T13:12:58.816Z,99.90
2022-10-07T13:15:28.510Z,99.90
2022-10-07T13:18:14.083Z,99.90
2022-10-07T13:20:46.667Z,99.90
2022-10-07T13:23:17.671Z,99.90
2022-10-07T13:25:47.003Z,99.90
2022-10-07T13:28:18.342Z,99.90
2022-10-07T13:30:45.511Z,99.90
2022-10-07T13:33:20.813Z,99.90
2022-10-07T13:35:47.753Z,99.90
2022-10-07T13:38:27.639Z,99.90
2022-10-07T13:40:55.046Z,99.90
2022-10-07T13:43:22.652Z,99.90
2022-10-07T13:45:49.274Z,99.90
2022-10-07T13:48:17.105Z,99.90
2022-10-07T13:50:44.098Z,99.90
2022-10-07T13:53:25.596Z,99.90
2022-10-07T13:56:03.861Z,99.90
2022-10-07T13:58:32.786Z,99.90
2022-10-07T14:01:02.741Z,99.90
2022-10-07T14:03:29.393Z,99.90
2022-10-07T14:05:56.299Z,99.90
2022-10-07T14:08:24.045Z,99.90
2022-10-07T14:10:59.923Z,99.90
2022-10-07T14:13:28.929Z,99.90
2022-10-07T14:15:56.267Z,99.90
2022-10-07T14:18:23.285Z,99.90
2022-10-07T14:20:56.713Z,99.90
2022-10-07T14:23:34.155Z,99.90
2022-10-07T14:26:01.941Z,99.90
2022-10-07T14:28:30.305Z,99.90
2022-10-07T14:31:27.691Z,99.90
2022-10-07T14:34:17.129Z,99.90
2022-10-07T14:37:03.539Z,99.90
2022-10-07T14:39:35.354Z,99.90
2022-10-07T14:42:02.341Z,99.90
2022-10-07T14:44:30.020Z,99.90
2022-10-07T14:47:09.095Z,99.90
2022-10-07T14:49:36.281Z,99.90
2022-10-07T14:52:03.997Z,99.90
2022-10-07T14:54:30.929Z,99.90
2022-10-07T14:56:57.424Z,99.90
2022-10-07T14:59:24.014Z,99.90
2022-10-07T15:01:50.591Z,99.90
2022-10-07T15:04:17.217Z,99.90
2022-10-07T15:06:47.485Z,99.90
2022-10-07T15:09:16.985Z,99.90
2022-10-07T15:11:43.543Z,99.40
2022-10-07T15:14:10.704Z,99.90
2022-10-07T15:16:37.733Z,90.50
2022-10-07T15:19:04.909Z,99.90
2022-10-07T15:21:31.524Z,99.90
2022-10-07T15:23:58.225Z,99.90
2022-10-07T15:26:25.125Z,99.90
2022-10-07T15:28:55.132Z,99.90
2022-10-07T15:31:23.388Z,99.90
2022-10-07T15:33:50.545Z,99.90
2022-10-07T15:36:17.815Z,99.90
2022-10-07T15:38:44.455Z,99.90
2022-10-07T15:41:17.381Z,89.90
2022-10-07T15:43:43.894Z,95.00
2022-10-07T15:46:10.468Z,99.70
2022-10-07T15:48:38.300Z,99.90
2022-10-07T15:51:04.987Z,98.50
2022-10-07T15:53:32.644Z,85.50
2022-10-07T15:55:59.203Z,58.60
2022-10-07T15:58:28.950Z,52.20
2022-10-07T16:01:05.388Z,91.80
2022-10-07T16:03:39.860Z,99.90
2022-10-07T16:06:10.919Z,85.80
2022-10-07T16:08:37.504Z,86.90
2022-10-07T16:11:07.955Z,89.60
2022-10-07T16:13:34.843Z,94.90
2022-10-07T16:16:03.284Z,99.90
2022-10-07T16:18:36.241Z,96.50
2022-10-07T16:21:03.925Z,92.40
2022-10-07T16:23:30.570Z,99.90
2022-10-07T16:25:57.072Z,89.00
2022-10-07T16:28:42.616Z,99.90
2022-10-07T16:31:09.324Z,99.90
2022-10-07T16:33:35.865Z,99.90
2022-10-07T16:36:09.936Z,95.50
2022-10-07T16:38:36.461Z,99.90
2022-10-07T16:41:02.970Z,99.90
2022-10-07T16:43:29.878Z,99.90
2022-10-07T16:46:00.072Z,99.90
2022-10-07T16:48:27.264Z,99.90
2022-10-07T16:50:53.786Z,99.90
2022-10-07T16:53:20.527Z,99.90
2022-10-07T16:55:47.052Z,99.90
2022-10-07T16:58:13.595Z,99.90
2022-10-07T17:00:41.411Z,99.90
2022-10-07T17:03:08.018Z,99.90
2022-10-07T17:05:37.259Z,99.90
2022-10-07T17:08:04.654Z,99.90
2022-10-07T17:10:31.440Z,99.90
2022-10-07T17:12:58.296Z,99.90
2022-10-07T17:15:24.950Z,99.90
2022-10-07T17:17:55.012Z,99.90
2022-10-07T17:20:21.582Z,99.90
2022-10-07T17:22:48.283Z,99.90
2022-10-07T17:25:15.309Z,99.90
2022-10-07T17:27:41.853Z,99.90
2022-10-07T17:30:08.808Z,99.90
2022-10-07T17:32:35.418Z,99.90
2022-10-07T17:35:01.994Z,99.90
2022-10-07T17:37:28.705Z,99.90
2022-10-07T17:39:55.249Z,99.90
2022-10-07T17:42:21.885Z,99.90
2022-10-07T17:44:48.416Z,99.90
2022-10-07T17:47:14.959Z,99.90
2022-10-07T17:49:41.507Z,99.90
2022-10-07T17:52:08.172Z,99.90
2022-10-07T17:54:34.697Z,99.90
2022-10-07T17:57:01.734Z,99.90
2022-10-07T17:59:28.324Z,99.90
2022-10-07T18:01:54.824Z,99.90
2022-10-07T18:04:24.986Z,99.90
2022-10-07T18:06:51.749Z,99.90
2022-10-07T18:09:19.274Z,99.90
2022-10-07T18:12:04.663Z,99.90
2022-10-07T18:14:53.473Z,99.90
2022-10-07T18:17:20.804Z,99.90
2022-10-07T18:19:47.491Z,99.90
2022-10-07T18:22:14.073Z,99.90
2022-10-07T18:24:40.784Z,99.90
2022-10-07T18:27:07.293Z,99.90
2022-10-07T18:29:38.096Z,99.90
2022-10-07T18:32:07.766Z,99.90
2022-10-07T18:34:34.365Z,99.90
2022-10-07T18:37:01.168Z,99.90
2022-10-07T18:39:29.296Z,99.90
2022-10-07T18:41:56.519Z,99.90
2022-10-07T18:44:23.163Z,99.90
2022-10-07T18:46:49.808Z,1.00
2022-10-07T18:49:16.408Z,1.00
2022-10-07T18:51:42.953Z,1.00
2022-10-07T18:54:09.979Z,1.00
2022-10-07T18:56:40.792Z,1.00
2022-10-07T18:59:08.677Z,1.00
2022-10-07T19:01:35.347Z,1.00
2022-10-07T19:04:03.221Z,1.00
2022-10-07T19:06:31.427Z,1.00
2022-10-07T19:08:59.155Z,1.00
2022-10-07T19:11:27.294Z,1.00
2022-10-07T19:13:56.508Z,1.00
2022-10-07T19:16:24.801Z,1.00
2022-10-07T19:18:53.430Z,1.00
2022-10-07T19:21:20.400Z,1.00
2022-10-07T19:23:48.367Z,1.00
2022-10-07T19:26:20.410Z,1.00
2022-10-07T19:28:48.899Z,1.00
2022-10-07T19:31:24.557Z,1.00
2022-10-07T19:33:52.386Z,1.00
2022-10-07T19:36:19.972Z,1.00
2022-10-07T19:38:52.109Z,1.00
2022-10-07T19:41:22.693Z,1.00
2022-10-07T19:43:49.641Z,1.00
2022-10-07T19:46:17.038Z,1.00
2022-10-07T19:48:43.613Z,1.00
2022-10-07T19:51:12.184Z,1.00
2022-10-07T19:53:42.207Z,1.00
2022-10-07T19:56:15.725Z,1.00
2022-10-07T19:58:47.847Z,1.00
2022-10-07T20:01:15.820Z,1.00
2022-10-07T20:03:42.400Z,1.00
2022-10-07T20:06:09.887Z,1.00
2022-10-07T20:08:40.378Z,1.00
2022-10-07T20:11:07.580Z,1.00
2022-10-07T20:13:35.869Z,1.00
2022-10-07T20:16:06.952Z,1.00
2022-10-07T20:18:34.100Z,1.00
2022-10-07T20:21:06.076Z,1.00
2022-10-07T20:23:33.590Z,1.00
2022-10-07T20:26:05.170Z,1.00
2022-10-07T20:28:31.901Z,1.00
2022-10-07T20:31:05.670Z,1.00
2022-10-07T20:33:39.295Z,1.00
2022-10-07T20:36:06.971Z,1.00
2022-10-07T20:38:53.601Z,1.00
2022-10-07T20:41:38.923Z,1.00
2022-10-07T20:44:05.857Z,1.00
2022-10-07T20:46:32.657Z,1.00
2022-10-07T20:48:59.205Z,1.00
2022-10-07T20:51:27.108Z,1.00
2022-10-07T20:53:53.948Z,1.00
2022-10-07T20:56:21.088Z,1.00
2022-10-07T20:58:47.657Z,1.00
2022-10-07T21:01:14.259Z,1.00
2022-10-07T21:03:40.982Z,1.00
2022-10-07T21:06:07.708Z,1.00
2022-10-07T21:08:34.225Z,1.00
2022-10-07T21:11:02.074Z,1.00
2022-10-07T21:13:29.147Z,1.00
2022-10-07T21:15:56.264Z,1.00
2022-10-07T21:18:23.164Z,1.00
2022-10-07T21:20:55.547Z,1.00
2022-10-07T21:23:23.538Z,1.00
2022-10-07T21:25:51.723Z,1.00
2022-10-07T21:28:18.609Z,1.00
2022-10-07T21:30:53.764Z,1.00
2022-10-07T21:33:20.375Z,1.00
2022-10-07T21:35:47.374Z,1.00
2022-10-07T21:38:14.447Z,1.00
2022-10-07T21:40:40.952Z,1.00
2022-10-07T21:43:07.520Z,1.00
2022-10-07T21:45:34.171Z,1.00
2022-10-07T21:48:01.842Z,1.00
2022-10-07T21:50:28.374Z,1.00
2022-10-07T21:52:54.994Z,1.00
2022-10-07T21:55:21.507Z,1.00
2022-10-07T21:57:48.039Z,1.00
2022-10-07T22:03:08.434Z,99.90
2022-10-07T22:05:35.414Z,1.00
2022-10-07T22:08:20.383Z,99.90
2022-10-07T22:10:47.950Z,99.90
2022-10-07T22:13:14.471Z,99.90
2022-10-07T22:15:41.048Z,99.90
2022-10-07T22:18:07.611Z,99.90
2022-10-07T22:20:38.232Z,99.90
2022-10-07T22:23:04.741Z,99.90
2022-10-07T22:25:31.299Z,1.00
2022-10-07T22:27:57.974Z,1.00
2022-10-07T22:30:24.940Z,99.90
2022-10-07T22:32:51.445Z,99.90
2022-10-07T22:35:27.414Z,1.00
2022-10-07T22:37:55.341Z,99.90
2022-10-07T22:40:21.869Z,99.90
2022-10-07T22:42:49.367Z,99.90
2022-10-07T22:45:17.085Z,99.90
2022-10-07T22:47:43.818Z,1.00
2022-10-07T22:50:10.439Z,1.00
2022-10-07T22:52:37.010Z,1.00
2022-10-07T22:55:04.490Z,1.00
2022-10-07T22:57:31.153Z,1.00
2022-10-07T23:00:00.116Z,1.00
2022-10-07T23:02:26.729Z,1.00
2022-10-07T23:04:53.302Z,1.00
2022-10-07T23:07:20.011Z,1.00
2022-10-07T23:09:46.517Z,99.90
2022-10-07T23:12:13.985Z,99.90
2022-10-07T23:14:41.165Z,99.90
2022-10-07T23:17:07.714Z,99.90
2022-10-07T23:19:34.230Z,99.90
2022-10-07T23:22:04.571Z,1.00
2022-10-07T23:24:31.274Z,1.00
2022-10-07T23:26:57.778Z,1.00
2022-10-07T23:29:26.522Z,99.90
2022-10-07T23:31:53.054Z,99.90
2022-10-07T23:34:19.605Z,99.90
2022-10-07T23:36:46.184Z,99.90
2022-10-07T23:39:13.404Z,1.00
2022-10-07T23:41:39.952Z,99.90
2022-10-07T23:44:06.532Z,99.90
2022-10-07T23:46:35.514Z,99.90
2022-10-07T23:49:02.910Z,99.90
2022-10-07T23:51:29.964Z,1.00
2022-10-07T23:53:56.589Z,1.00
2022-10-07T23:56:23.340Z,1.00
2022-10-07T23:58:50.113Z,1.00
